sensor_id;sensor_type;location;lat;lon;timestamp;pressure;altitude;pressure_sealevel;temperature
73734;BMP280;62039;50.000;9.064;2023-08-06T00:02:14;99474.06;;;17.48
73734;BMP280;62039;50.000;9.064;2023-08-06T00:04:41;99473.25;;;17.48
73734;BMP280;62039;50.000;9.064;2023-08-06T00:07:08;99473.25;;;17.48
73734;BMP280;62039;50.000;9.064;2023-08-06T00:09:35;99470.81;;;17.46
73734;BMP280;62039;50.000;9.064;2023-08-06T00:12:05;99460.50;;;17.45
73734;BMP280;62039;50.000;9.064;2023-08-06T00:14:32;99460.72;;;17.43
73734;BMP280;62039;50.000;9.064;2023-08-06T00:16:59;99461.75;;;17.42
73734;BMP280;62039;50.000;9.064;2023-08-06T00:19:27;99454.28;;;17.39
73734;BMP280;62039;50.000;9.064;2023-08-06T00:21:54;99443.16;;;17.37
73734;BMP280;62039;50.000;9.064;2023-08-06T00:24:21;99446.81;;;17.36
73734;BMP280;62039;50.000;9.064;2023-08-06T00:26:47;99443.38;;;17.36
73734;BMP280;62039;50.000;9.064;2023-08-06T00:29:18;99442.56;;;17.35
73734;BMP280;62039;50.000;9.064;2023-08-06T00:31:45;99445.44;;;17.34
73734;BMP280;62039;50.000;9.064;2023-08-06T00:34:12;99441.97;;;17.33
73734;BMP280;62039;50.000;9.064;2023-08-06T00:36:38;99430.06;;;17.31
73734;BMP280;62039;50.000;9.064;2023-08-06T00:39:05;99433.50;;;17.31
73734;BMP280;62039;50.000;9.064;2023-08-06T00:41:32;99418.69;;;17.30
73734;BMP280;62039;50.000;9.064;2023-08-06T00:44:00;99422.38;;;17.29
73734;BMP280;62039;50.000;9.064;2023-08-06T00:46:29;99420.75;;;17.28
73734;BMP280;62039;50.000;9.064;2023-08-06T00:48:57;99422.03;;;17.25
73734;BMP280;62039;50.000;9.064;2023-08-06T00:51:24;99418.59;;;17.25
73734;BMP280;62039;50.000;9.064;2023-08-06T00:53:52;99425.69;;;17.24
73734;BMP280;62039;50.000;9.064;2023-08-06T00:56:19;99417.19;;;17.22
73734;BMP280;62039;50.000;9.064;2023-08-06T00:58:47;99420.03;;;17.21
73734;BMP280;62039;50.000;9.064;2023-08-06T01:01:14;99415.22;;;17.18
73734;BMP280;62039;50.000;9.064;2023-08-06T01:03:43;99408.34;;;17.17
73734;BMP280;62039;50.000;9.064;2023-08-06T01:06:11;99407.97;;;17.13
73734;BMP280;62039;50.000;9.064;2023-08-06T01:08:44;99406.13;;;17.14
73734;BMP280;62039;50.000;9.064;2023-08-06T01:11:21;99410.59;;;17.13
73734;BMP280;62039;50.000;9.064;2023-08-06T01:13:57;99411.88;;;17.11
73734;BMP280;62039;50.000;9.064;2023-08-06T01:16:25;99401.75;;;17.08
73734;BMP280;62039;50.000;9.064;2023-08-06T01:18:55;99399.34;;;17.06
73734;BMP280;62039;50.000;9.064;2023-08-06T01:21:24;99397.38;;;17.02
73734;BMP280;62039;50.000;9.064;2023-08-06T01:23:51;99386.25;;;17.00
73734;BMP280;62039;50.000;9.064;2023-08-06T01:26:24;99388.31;;;16.98
73734;BMP280;62039;50.000;9.064;2023-08-06T01:28:57;99380.84;;;16.95
73734;BMP280;62039;50.000;9.064;2023-08-06T01:31:30;99368.13;;;16.92
73734;BMP280;62039;50.000;9.064;2023-08-06T01:33:58;99359.63;;;16.90
73734;BMP280;62039;50.000;9.064;2023-08-06T01:36:30;99357.97;;;16.88
73734;BMP280;62039;50.000;9.064;2023-08-06T01:38:57;99359.00;;;16.87
73734;BMP280;62039;50.000;9.064;2023-08-06T01:41:24;99359.22;;;16.86
73734;BMP280;62039;50.000;9.064;2023-08-06T01:43:51;99355.22;;;16.83
73734;BMP280;62039;50.000;9.064;2023-08-06T01:46:18;99352.00;;;16.81
73734;BMP280;62039;50.000;9.064;2023-08-06T01:48:45;99351.41;;;16.79
73734;BMP280;62039;50.000;9.064;2023-08-06T01:51:12;99357.25;;;16.81
73734;BMP280;62039;50.000;9.064;2023-08-06T01:53:41;99362.53;;;16.81
73734;BMP280;62039;50.000;9.064;2023-08-06T01:56:08;99356.25;;;16.82
73734;BMP280;62039;50.000;9.064;2023-08-06T01:58:35;99354.41;;;16.83
73734;BMP280;62039;50.000;9.064;2023-08-06T02:01:02;99353.59;;;16.82
73734;BMP280;62039;50.000;9.064;2023-08-06T02:03:29;99348.13;;;16.84
73734;BMP280;62039;50.000;9.064;2023-08-06T02:05:56;99337.78;;;16.82
73734;BMP280;62039;50.000;9.064;2023-08-06T02:08:23;99337.78;;;16.82
73734;BMP280;62039;50.000;9.064;2023-08-06T02:10:53;99335.94;;;16.83
73734;BMP280;62039;50.000;9.064;2023-08-06T02:13:20;99328.03;;;16.83
73734;BMP280;62039;50.000;9.064;2023-08-06T02:15:47;99331.69;;;16.82
73734;BMP280;62039;50.000;9.064;2023-08-06T02:18:14;99332.50;;;16.82
73734;BMP280;62039;50.000;9.064;2023-08-06T02:20:41;99324.81;;;16.81
73734;BMP280;62039;50.000;9.064;2023-08-06T02:23:09;99323.19;;;16.80
73734;BMP280;62039;50.000;9.064;2023-08-06T02:25:36;99311.84;;;16.79
73734;BMP280;62039;50.000;9.064;2023-08-06T02:28:05;99322.41;;;16.79
73734;BMP280;62039;50.000;9.064;2023-08-06T02:30:32;99319.19;;;16.77
73734;BMP280;62039;50.000;9.064;2023-08-06T02:32:59;99323.88;;;16.75
73734;BMP280;62039;50.000;9.064;2023-08-06T02:35:26;99310.69;;;16.75
73734;BMP280;62039;50.000;9.064;2023-08-06T02:37:53;99315.75;;;16.77
73734;BMP280;62039;50.000;9.064;2023-08-06T02:40:20;99314.94;;;16.76
73734;BMP280;62039;50.000;9.064;2023-08-06T02:42:47;99302.56;;;16.77
73734;BMP280;62039;50.000;9.064;2023-08-06T02:45:17;99297.84;;;16.79
73734;BMP280;62039;50.000;9.064;2023-08-06T02:47:44;99296.03;;;16.79
73734;BMP280;62039;50.000;9.064;2023-08-06T02:50:11;99297.06;;;16.78
73734;BMP280;62039;50.000;9.064;2023-08-06T02:52:38;99297.63;;;16.80
73734;BMP280;62039;50.000;9.064;2023-08-06T02:55:05;99284.69;;;16.79
73734;BMP280;62039;50.000;9.064;2023-08-06T02:57:33;99289.13;;;16.78
73734;BMP280;62039;50.000;9.064;2023-08-06T03:00:00;99277.00;;;16.77
73734;BMP280;62039;50.000;9.064;2023-08-06T03:02:29;99289.13;;;16.78
73734;BMP280;62039;50.000;9.064;2023-08-06T03:04:56;99283.31;;;16.76
73734;BMP280;62039;50.000;9.064;2023-08-06T03:07:23;99284.91;;;16.77
73734;BMP280;62039;50.000;9.064;2023-08-06T03:09:50;99285.13;;;16.76
73734;BMP280;62039;50.000;9.064;2023-08-06T03:12:17;99280.91;;;16.75
73734;BMP280;62039;50.000;9.064;2023-08-06T03:14:44;99266.91;;;16.74
73734;BMP280;62039;50.000;9.064;2023-08-06T03:17:11;99261.63;;;16.74
73734;BMP280;62039;50.000;9.064;2023-08-06T03:19:40;99262.44;;;16.75
73734;BMP280;62039;50.000;9.064;2023-08-06T03:22:07;99259.47;;;16.71
73734;BMP280;62039;50.000;9.064;2023-08-06T03:24:34;99256.81;;;16.71
73734;BMP280;62039;50.000;9.064;2023-08-06T03:27:01;99260.50;;;16.70
73734;BMP280;62039;50.000;9.064;2023-08-06T03:29:28;99251.19;;;16.68
73734;BMP280;62039;50.000;9.064;2023-08-06T03:31:55;99249.56;;;16.67
73734;BMP280;62039;50.000;9.064;2023-08-06T03:34:22;99242.69;;;16.66
73734;BMP280;62039;50.000;9.064;2023-08-06T03:36:52;99249.00;;;16.65
73734;BMP280;62039;50.000;9.064;2023-08-06T03:39:19;99255.31;;;16.64
73734;BMP280;62039;50.000;9.064;2023-08-06T03:41:46;99258.16;;;16.62
73734;BMP280;62039;50.000;9.064;2023-08-06T03:44:13;99261.81;;;16.61
73734;BMP280;62039;50.000;9.064;2023-08-06T03:46:40;99253.31;;;16.59
73734;BMP280;62039;50.000;9.064;2023-08-06T03:49:07;99258.59;;;16.59
73734;BMP280;62039;50.000;9.064;2023-08-06T03:51:34;99250.94;;;16.58
73734;BMP280;62039;50.000;9.064;2023-08-06T03:54:03;99249.31;;;16.57
73734;BMP280;62039;50.000;9.064;2023-08-06T03:56:30;99244.50;;;16.54
73734;BMP280;62039;50.000;9.064;2023-08-06T03:58:57;99244.72;;;16.52
73734;BMP280;62039;50.000;9.064;2023-08-06T04:01:24;99248.63;;;16.50
73734;BMP280;62039;50.000;9.064;2023-08-06T04:03:51;99244.59;;;16.47
73734;BMP280;62039;50.000;9.064;2023-08-06T04:06:18;99246.41;;;16.46
73734;BMP280;62039;50.000;9.064;2023-08-06T04:08:45;99245.06;;;16.44
73734;BMP280;62039;50.000;9.064;2023-08-06T04:11:15;99244.25;;;16.43
73734;BMP280;62039;50.000;9.064;2023-08-06T04:13:42;99240.00;;;16.42
73734;BMP280;62039;50.000;9.064;2023-08-06T04:16:09;99235.75;;;16.41
73734;BMP280;62039;50.000;9.064;2023-08-06T04:18:36;99230.13;;;16.38
73734;BMP280;62039;50.000;9.064;2023-08-06T04:21:03;99225.31;;;16.35
73734;BMP280;62039;50.000;9.064;2023-08-06T04:23:30;99232.63;;;16.33
73734;BMP280;62039;50.000;9.064;2023-08-06T04:25:58;99235.72;;;16.30
73734;BMP280;62039;50.000;9.064;2023-08-06T04:28:27;99235.94;;;16.28
73734;BMP280;62039;50.000;9.064;2023-08-06T04:30:54;99236.16;;;16.27
73734;BMP280;62039;50.000;9.064;2023-08-06T04:33:21;99232.50;;;16.28
73734;BMP280;62039;50.000;9.064;2023-08-06T04:35:53;99231.47;;;16.29
73734;BMP280;62039;50.000;9.064;2023-08-06T04:38:20;99231.47;;;16.29
73734;BMP280;62039;50.000;9.064;2023-08-06T04:40:47;99241.00;;;16.30
73734;BMP280;62039;50.000;9.064;2023-08-06T04:43:14;99237.34;;;16.31
73734;BMP280;62039;50.000;9.064;2023-08-06T04:45:48;99227.56;;;16.31
73734;BMP280;62039;50.000;9.064;2023-08-06T04:48:16;99228.38;;;16.32
73734;BMP280;62039;50.000;9.064;2023-08-06T04:50:44;99230.78;;;16.33
73734;BMP280;62039;50.000;9.064;2023-08-06T04:53:11;99238.69;;;16.33
73734;BMP280;62039;50.000;9.064;2023-08-06T04:55:38;99240.31;;;16.34
73734;BMP280;62039;50.000;9.064;2023-08-06T04:58:05;99241.13;;;16.35
73734;BMP280;62039;50.000;9.064;2023-08-06T05:00:32;99244.78;;;16.34
73734;BMP280;62039;50.000;9.064;2023-08-06T05:03:02;99246.38;;;16.35
73734;BMP280;62039;50.000;9.064;2023-08-06T05:05:29;99253.69;;;16.33
73734;BMP280;62039;50.000;9.064;2023-08-06T05:07:57;99248.66;;;16.31
73734;BMP280;62039;50.000;9.064;2023-08-06T05:10:24;99238.78;;;16.27
73734;BMP280;62039;50.000;9.064;2023-08-06T05:12:51;99249.78;;;16.24
73734;BMP280;62039;50.000;9.064;2023-08-06T05:15:18;99248.19;;;16.23
73734;BMP280;62039;50.000;9.064;2023-08-06T05:17:46;99247.38;;;16.22
73734;BMP280;62039;50.000;9.064;2023-08-06T05:20:15;99248.97;;;16.23
73734;BMP280;62039;50.000;9.064;2023-08-06T05:22:43;99248.19;;;16.23
73734;BMP280;62039;50.000;9.064;2023-08-06T05:25:13;99244.53;;;16.24
73734;BMP280;62039;50.000;9.064;2023-08-06T05:27:40;99245.31;;;16.24
73734;BMP280;62039;50.000;9.064;2023-08-06T05:30:08;99247.16;;;16.24
73734;BMP280;62039;50.000;9.064;2023-08-06T05:32:36;99251.38;;;16.25
73734;BMP280;62039;50.000;9.064;2023-08-06T05:35:03;99248.72;;;16.25
73734;BMP280;62039;50.000;9.064;2023-08-06T05:37:33;99242.44;;;16.26
73734;BMP280;62039;50.000;9.064;2023-08-06T05:40:00;99252.97;;;16.26
73734;BMP280;62039;50.000;9.064;2023-08-06T05:42:27;99249.31;;;16.27
73734;BMP280;62039;50.000;9.064;2023-08-06T05:44:54;99248.31;;;16.28
73734;BMP280;62039;50.000;9.064;2023-08-06T05:47:21;99240.41;;;16.28
73734;BMP280;62039;50.000;9.064;2023-08-06T05:49:48;99240.19;;;16.29
73734;BMP280;62039;50.000;9.064;2023-08-06T05:52:15;99243.63;;;16.30
73734;BMP280;62039;50.000;9.064;2023-08-06T05:54:44;99244.19;;;16.32
73734;BMP280;62039;50.000;9.064;2023-08-06T05:57:11;99253.69;;;16.33
73734;BMP280;62039;50.000;9.064;2023-08-06T05:59:40;99251.06;;;16.33
73734;BMP280;62039;50.000;9.064;2023-08-06T06:02:07;99253.69;;;16.33
73734;BMP280;62039;50.000;9.064;2023-08-06T06:04:34;99253.69;;;16.33
73734;BMP280;62039;50.000;9.064;2023-08-06T06:07:01;99253.69;;;16.33
73734;BMP280;62039;50.000;9.064;2023-08-06T06:09:28;99255.31;;;16.34
73734;BMP280;62039;50.000;9.064;2023-08-06T06:11:57;99255.31;;;16.34
73734;BMP280;62039;50.000;9.064;2023-08-06T06:14:24;99256.53;;;16.31
73734;BMP280;62039;50.000;9.064;2023-08-06T06:16:51;99256.78;;;16.30
73734;BMP280;62039;50.000;9.064;2023-08-06T06:19:18;99251.97;;;16.27
73734;BMP280;62039;50.000;9.064;2023-08-06T06:21:45;99256.41;;;16.26
73734;BMP280;62039;50.000;9.064;2023-08-06T06:24:12;99264.53;;;16.25
73734;BMP280;62039;50.000;9.064;2023-08-06T06:26:39;99262.97;;;16.24
73734;BMP280;62039;50.000;9.064;2023-08-06T06:29:09;99265.00;;;16.22
73734;BMP280;62039;50.000;9.064;2023-08-06T06:31:36;99263.38;;;16.21
73734;BMP280;62039;50.000;9.064;2023-08-06T06:34:03;99261.78;;;16.20
73734;BMP280;62039;50.000;9.064;2023-08-06T06:36:30;99267.22;;;16.18
73734;BMP280;62039;50.000;9.064;2023-08-06T06:38:57;99257.97;;;16.16
73734;BMP280;62039;50.000;9.064;2023-08-06T06:41:24;99261.63;;;16.15
73734;BMP280;62039;50.000;9.064;2023-08-06T06:43:51;99263.66;;;16.13
73734;BMP280;62039;50.000;9.064;2023-08-06T06:46:20;99264.69;;;16.12
73734;BMP280;62039;50.000;9.064;2023-08-06T06:48:47;99260.47;;;16.11
73734;BMP280;62039;50.000;9.064;2023-08-06T06:51:14;99257.81;;;16.11
73734;BMP280;62039;50.000;9.064;2023-08-06T06:53:41;99256.78;;;16.12
73734;BMP280;62039;50.000;9.064;2023-08-06T06:56:08;99253.13;;;16.13
73734;BMP280;62039;50.000;9.064;2023-08-06T06:58:35;99253.94;;;16.13
73734;BMP280;62039;50.000;9.064;2023-08-06T07:01:02;99251.28;;;16.13
73734;BMP280;62039;50.000;9.064;2023-08-06T07:03:31;99260.00;;;16.14
73734;BMP280;62039;50.000;9.064;2023-08-06T07:05:59;99254.72;;;16.14
73734;BMP280;62039;50.000;9.064;2023-08-06T07:08:26;99253.94;;;16.13
73734;BMP280;62039;50.000;9.064;2023-08-06T07:10:59;99259.41;;;16.12
73734;BMP280;62039;50.000;9.064;2023-08-06T07:13:26;99256.78;;;16.12
73734;BMP280;62039;50.000;9.064;2023-08-06T07:15:54;99255.53;;;16.14
73734;BMP280;62039;50.000;9.064;2023-08-06T07:18:21;99257.97;;;16.16
73734;BMP280;62039;50.000;9.064;2023-08-06T07:20:51;99255.91;;;16.18
73734;BMP280;62039;50.000;9.064;2023-08-06T07:23:19;99252.69;;;16.16
73734;BMP280;62039;50.000;9.064;2023-08-06T07:25:46;99248.22;;;16.16
73734;BMP280;62039;50.000;9.064;2023-08-06T07:28:13;99249.03;;;16.17
73734;BMP280;62039;50.000;9.064;2023-08-06T07:30:41;99250.88;;;16.16
73734;BMP280;62039;50.000;9.064;2023-08-06T07:33:08;99257.97;;;16.16
73734;BMP280;62039;50.000;9.064;2023-08-06T07:35:36;99254.31;;;16.17
73734;BMP280;62039;50.000;9.064;2023-08-06T07:38:06;99253.88;;;16.20
73734;BMP280;62039;50.000;9.064;2023-08-06T07:40:35;99249.59;;;16.19
73734;BMP280;62039;50.000;9.064;2023-08-06T07:43:02;99251.66;;;16.17
73734;BMP280;62039;50.000;9.064;2023-08-06T07:45:32;99244.78;;;16.16
73734;BMP280;62039;50.000;9.064;2023-08-06T07:47:59;99257.16;;;16.15
73734;BMP280;62039;50.000;9.064;2023-08-06T07:50:26;99252.69;;;16.16
73734;BMP280;62039;50.000;9.064;2023-08-06T07:52:53;99256.34;;;16.15
73734;BMP280;62039;50.000;9.064;2023-08-06T07:55:23;99247.84;;;16.13
73734;BMP280;62039;50.000;9.064;2023-08-06T07:57:50;99249.94;;;16.11
73734;BMP280;62039;50.000;9.064;2023-08-06T08:00:17;99247.28;;;16.11
73734;BMP280;62039;50.000;9.064;2023-08-06T08:02:44;99254.38;;;16.10
73734;BMP280;62039;50.000;9.064;2023-08-06T08:05:11;99246.25;;;16.12
73734;BMP280;62039;50.000;9.064;2023-08-06T08:07:38;99253.34;;;16.11
73734;BMP280;62039;50.000;9.064;2023-08-06T08:10:06;99254.13;;;16.12
73734;BMP280;62039;50.000;9.064;2023-08-06T08:12:36;99255.97;;;16.11
73734;BMP280;62039;50.000;9.064;2023-08-06T08:15:04;99254.38;;;16.10
73734;BMP280;62039;50.000;9.064;2023-08-06T08:17:31;99255.19;;;16.11
73734;BMP280;62039;50.000;9.064;2023-08-06T08:19:58;99247.03;;;16.12
73734;BMP280;62039;50.000;9.064;2023-08-06T08:22:25;99239.16;;;16.12
73734;BMP280;62039;50.000;9.064;2023-08-06T08:24:52;99244.19;;;16.14
73734;BMP280;62039;50.000;9.064;2023-08-06T08:27:19;99246.84;;;16.14
73734;BMP280;62039;50.000;9.064;2023-08-06T08:29:49;99248.88;;;16.12
73734;BMP280;62039;50.000;9.064;2023-08-06T08:32:16;99244.50;;;16.05
73734;BMP280;62039;50.000;9.064;2023-08-06T08:34:43;99248.41;;;16.03
73734;BMP280;62039;50.000;9.064;2023-08-06T08:37:10;99244.38;;;16.00
73734;BMP280;62039;50.000;9.064;2023-08-06T08:39:37;99243.56;;;16.00
73734;BMP280;62039;50.000;9.064;2023-08-06T08:42:04;99240.13;;;15.99
73734;BMP280;62039;50.000;9.064;2023-08-06T08:44:31;99232.22;;;15.99
73734;BMP280;62039;50.000;9.064;2023-08-06T08:47:00;99240.50;;;16.03
73734;BMP280;62039;50.000;9.064;2023-08-06T08:49:29;99235.22;;;16.03
73734;BMP280;62039;50.000;9.064;2023-08-06T08:51:57;99222.06;;;16.03
73734;BMP280;62039;50.000;9.064;2023-08-06T08:54:26;99227.88;;;16.05
73734;BMP280;62039;50.000;9.064;2023-08-06T08:56:53;99231.91;;;16.07
73734;BMP280;62039;50.000;9.064;2023-08-06T08:59:20;99222.53;;;16.12
73734;BMP280;62039;50.000;9.064;2023-08-06T09:01:48;99226.13;;;16.17
73734;BMP280;62039;50.000;9.064;2023-08-06T09:04:18;99225.69;;;16.20
73734;BMP280;62039;50.000;9.064;2023-08-06T09:06:46;99224.25;;;16.24
73734;BMP280;62039;50.000;9.064;2023-08-06T09:09:17;99224.38;;;16.29
73734;BMP280;62039;50.000;9.064;2023-08-06T09:11:48;99219.66;;;16.31
73734;BMP280;62039;50.000;9.064;2023-08-06T09:14:15;99223.69;;;16.34
73734;BMP280;62039;50.000;9.064;2023-08-06T09:19:09;99217.44;;;16.46
73734;BMP280;62039;50.000;9.064;2023-08-06T09:21:40;99223.19;;;16.55
73734;BMP280;62039;50.000;9.064;2023-08-06T09:24:08;99216.00;;;16.62
73734;BMP280;62039;50.000;9.064;2023-08-06T09:26:36;99218.06;;;16.72
73734;BMP280;62039;50.000;9.064;2023-08-06T09:29:05;99206.97;;;16.81
73734;BMP280;62039;50.000;9.064;2023-08-06T09:31:41;99212.53;;;16.92
73734;BMP280;62039;50.000;9.064;2023-08-06T09:34:15;99204.03;;;17.01
73734;BMP280;62039;50.000;9.064;2023-08-06T09:36:46;99210.91;;;17.14
73734;BMP280;62039;50.000;9.064;2023-08-06T09:39:14;99215.41;;;17.25
73734;BMP280;62039;50.000;9.064;2023-08-06T09:41:42;99206.88;;;17.35
73734;BMP280;62039;50.000;9.064;2023-08-06T09:44:16;99214.78;;;17.46
73734;BMP280;62039;50.000;9.064;2023-08-06T09:46:43;99206.28;;;17.56
73734;BMP280;62039;50.000;9.064;2023-08-06T09:49:13;99217.41;;;17.70
73734;BMP280;62039;50.000;9.064;2023-08-06T09:51:40;99201.31;;;17.83
73734;BMP280;62039;50.000;9.064;2023-08-06T09:54:12;99203.44;;;17.97
73734;BMP280;62039;50.000;9.064;2023-08-06T09:56:53;99198.13;;;18.09
73734;BMP280;62039;50.000;9.064;2023-08-06T09:59:20;99198.84;;;18.21
73734;BMP280;62039;50.000;9.064;2023-08-06T10:01:48;99183.53;;;18.35
73734;BMP280;62039;50.000;9.064;2023-08-06T10:04:15;99177.13;;;18.48
73734;BMP280;62039;50.000;9.064;2023-08-06T10:06:50;99177.91;;;18.60
73734;BMP280;62039;50.000;9.064;2023-08-06T10:09:20;99185.97;;;18.70
73734;BMP280;62039;50.000;9.064;2023-08-06T10:11:50;99183.41;;;18.75
73734;BMP280;62039;50.000;9.064;2023-08-06T10:14:22;99173.97;;;18.79
73734;BMP280;62039;50.000;9.064;2023-08-06T10:16:50;99167.13;;;18.83
73734;BMP280;62039;50.000;9.064;2023-08-06T10:19:18;99170.09;;;18.87
73734;BMP280;62039;50.000;9.064;2023-08-06T10:22:10;99165.16;;;18.90
73734;BMP280;62039;50.000;9.064;2023-08-06T10:24:50;99157.56;;;18.94
73734;BMP280;62039;50.000;9.064;2023-08-06T10:27:29;99162.09;;;18.98
73734;BMP280;62039;50.000;9.064;2023-08-06T10:29:56;99156.81;;;18.98
73734;BMP280;62039;50.000;9.064;2023-08-06T10:32:47;99162.56;;;18.95
73734;BMP280;62039;50.000;9.064;2023-08-06T10:35:28;99172.84;;;18.92
73734;BMP280;62039;50.000;9.064;2023-08-06T10:37:58;99165.63;;;18.87
73734;BMP280;62039;50.000;9.064;2023-08-06T10:40:28;99210.50;;;18.82
73734;BMP280;62039;50.000;9.064;2023-08-06T10:42:55;99197.66;;;18.74
73734;BMP280;62039;50.000;9.064;2023-08-06T10:45:22;99206.56;;;18.68
73734;BMP280;62039;50.000;9.064;2023-08-06T10:47:49;99206.72;;;18.61
73734;BMP280;62039;50.000;9.064;2023-08-06T10:50:17;99197.91;;;18.56
73734;BMP280;62039;50.000;9.064;2023-08-06T10:52:44;99198.88;;;18.50
73734;BMP280;62039;50.000;9.064;2023-08-06T10:55:11;99202.00;;;18.47
73734;BMP280;62039;50.000;9.064;2023-08-06T10:57:41;99204.66;;;18.47
73734;BMP280;62039;50.000;9.064;2023-08-06T11:00:09;99200.41;;;18.46
73734;BMP280;62039;50.000;9.064;2023-08-06T11:02:43;99193.72;;;18.43
73734;BMP280;62039;50.000;9.064;2023-08-06T11:05:11;99197.91;;;18.39
73734;BMP280;62039;50.000;9.064;2023-08-06T11:07:38;99188.59;;;18.36
73734;BMP280;62039;50.000;9.064;2023-08-06T11:10:07;99195.72;;;18.36
73734;BMP280;62039;50.000;9.064;2023-08-06T11:12:34;99199.41;;;18.35
73734;BMP280;62039;50.000;9.064;2023-08-06T11:15:05;99192.28;;;18.35
73734;BMP280;62039;50.000;9.064;2023-08-06T11:17:34;99196.53;;;18.36
73734;BMP280;62039;50.000;9.064;2023-08-06T11:20:01;99202.03;;;18.35
73734;BMP280;62039;50.000;9.064;2023-08-06T11:22:28;99194.59;;;18.32
73734;BMP280;62039;50.000;9.064;2023-08-06T11:24:56;99186.91;;;18.30
73734;BMP280;62039;50.000;9.064;2023-08-06T11:27:23;99187.72;;;18.31
73734;BMP280;62039;50.000;9.064;2023-08-06T11:29:49;99184.03;;;18.32
73734;BMP280;62039;50.000;9.064;2023-08-06T11:32:19;99186.75;;;18.37
73734;BMP280;62039;50.000;9.064;2023-08-06T11:34:46;99189.16;;;18.38
73734;BMP280;62039;50.000;9.064;2023-08-06T11:37:13;99188.94;;;18.40
73734;BMP280;62039;50.000;9.064;2023-08-06T11:39:46;99182.34;;;18.42
73734;BMP280;62039;50.000;9.064;2023-08-06T11:42:13;99190.84;;;18.45
73734;BMP280;62039;50.000;9.064;2023-08-06T11:44:41;99190.63;;;18.46
73734;BMP280;62039;50.000;9.064;2023-08-06T11:47:12;99179.56;;;18.49
73734;BMP280;62039;50.000;9.064;2023-08-06T11:49:44;99184.03;;;18.49
73734;BMP280;62039;50.000;9.064;2023-08-06T11:52:14;99186.44;;;18.50
73734;BMP280;62039;50.000;9.064;2023-08-06T11:54:42;99180.19;;;18.56
73734;BMP280;62039;50.000;9.064;2023-08-06T11:57:10;99184.75;;;18.61
73734;BMP280;62039;50.000;9.064;2023-08-06T11:59:37;99174.28;;;18.66
73734;BMP280;62039;50.000;9.064;2023-08-06T12:02:10;99175.97;;;18.72
73734;BMP280;62039;50.000;9.064;2023-08-06T12:05:01;99172.34;;;18.78
73734;BMP280;62039;50.000;9.064;2023-08-06T12:07:29;99195.19;;;18.84
73734;BMP280;62039;50.000;9.064;2023-08-06T12:09:57;99193.13;;;18.86
73734;BMP280;62039;50.000;9.064;2023-08-06T12:12:24;99194.16;;;18.85
73734;BMP280;62039;50.000;9.064;2023-08-06T12:14:51;99200.47;;;18.84
73734;BMP280;62039;50.000;9.064;2023-08-06T12:17:18;99210.03;;;18.85
73734;BMP280;62039;50.000;9.064;2023-08-06T12:19:46;99213.94;;;18.82
73734;BMP280;62039;50.000;9.064;2023-08-06T12:22:16;99217.88;;;18.80
73734;BMP280;62039;50.000;9.064;2023-08-06T12:24:44;99227.09;;;18.77
73734;BMP280;62039;50.000;9.064;2023-08-06T12:27:11;99242.88;;;18.72
73734;BMP280;62039;50.000;9.064;2023-08-06T12:29:41;99248.56;;;18.64
73734;BMP280;62039;50.000;9.064;2023-08-06T12:32:08;99265.84;;;18.55
73734;BMP280;62039;50.000;9.064;2023-08-06T12:34:35;99277.88;;;18.46
73734;BMP280;62039;50.000;9.064;2023-08-06T12:37:21;99280.06;;;18.37
73734;BMP280;62039;50.000;9.064;2023-08-06T12:39:48;99287.00;;;18.27
73734;BMP280;62039;50.000;9.064;2023-08-06T12:42:15;99300.56;;;18.19
73734;BMP280;62039;50.000;9.064;2023-08-06T12:44:42;99310.91;;;18.09
73734;BMP280;62039;50.000;9.064;2023-08-06T12:47:09;99297.75;;;17.97
73734;BMP280;62039;50.000;9.064;2023-08-06T12:49:36;99312.56;;;17.86
73734;BMP280;62039;50.000;9.064;2023-08-06T12:52:03;99308.69;;;17.77
73734;BMP280;62039;50.000;9.064;2023-08-06T12:54:33;99311.34;;;17.66
73734;BMP280;62039;50.000;9.064;2023-08-06T12:57:00;99316.97;;;17.57
73734;BMP280;62039;50.000;9.064;2023-08-06T12:59:27;99320.94;;;17.48
73734;BMP280;62039;50.000;9.064;2023-08-06T13:01:54;99339.19;;;17.38
73734;BMP280;62039;50.000;9.064;2023-08-06T13:04:22;99337.47;;;17.32
73734;BMP280;62039;50.000;9.064;2023-08-06T13:06:49;99347.88;;;17.27
73734;BMP280;62039;50.000;9.064;2023-08-06T13:09:16;99354.66;;;17.23
73734;BMP280;62039;50.000;9.064;2023-08-06T13:11:46;99355.69;;;17.22
73734;BMP280;62039;50.000;9.064;2023-08-06T13:14:13;99363.47;;;17.17
73734;BMP280;62039;50.000;9.064;2023-08-06T13:16:42;99359.44;;;17.14
73734;BMP280;62039;50.000;9.064;2023-08-06T13:19:10;99366.22;;;17.10
73734;BMP280;62039;50.000;9.064;2023-08-06T13:21:58;99365.94;;;17.00
73734;BMP280;62039;50.000;9.064;2023-08-06T13:24:25;99373.75;;;16.95
73734;BMP280;62039;50.000;9.064;2023-08-06T13:26:55;99371.31;;;16.94
73734;BMP280;62039;50.000;9.064;2023-08-06T13:29:25;99380.72;;;16.90
73734;BMP280;62039;50.000;9.064;2023-08-06T13:31:52;99382.16;;;16.85
73734;BMP280;62039;50.000;9.064;2023-08-06T13:34:19;99397.41;;;16.83
73734;BMP280;62039;50.000;9.064;2023-08-06T13:36:46;99395.41;;;16.79
73734;BMP280;62039;50.000;9.064;2023-08-06T13:39:14;99398.31;;;16.77
73734;BMP280;62039;50.000;9.064;2023-08-06T13:41:41;99396.09;;;16.74
73734;BMP280;62039;50.000;9.064;2023-08-06T13:44:11;99405.72;;;16.69
73734;BMP280;62039;50.000;9.064;2023-08-06T13:46:38;99405.78;;;16.62
73734;BMP280;62039;50.000;9.064;2023-08-06T13:49:05;99412.75;;;16.57
73734;BMP280;62039;50.000;9.064;2023-08-06T13:51:32;99416.03;;;16.52
73734;BMP280;62039;50.000;9.064;2023-08-06T13:53:59;99426.22;;;16.48
73734;BMP280;62039;50.000;9.064;2023-08-06T13:56:26;99420.81;;;16.43
73734;BMP280;62039;50.000;9.064;2023-08-06T13:58:52;99425.91;;;16.38
73734;BMP280;62039;50.000;9.064;2023-08-06T14:01:22;99423.94;;;16.34
73734;BMP280;62039;50.000;9.064;2023-08-06T14:04:04;99433.75;;;16.27
73734;BMP280;62039;50.000;9.064;2023-08-06T14:06:31;99438.06;;;16.21
73734;BMP280;62039;50.000;9.064;2023-08-06T14:08:58;99439.50;;;16.17
73734;BMP280;62039;50.000;9.064;2023-08-06T14:11:25;99443.59;;;16.13
73734;BMP280;62039;50.000;9.064;2023-08-06T14:13:52;99452.97;;;16.09
73734;BMP280;62039;50.000;9.064;2023-08-06T14:16:21;99457.84;;;16.05
73734;BMP280;62039;50.000;9.064;2023-08-06T14:18:48;99465.72;;;16.05